Dades meteomassalio
Diari Summary for Diciembre 5, 2017 Units:  English    Metric   Both
« Previous Day
Next Day »
Diari Semanal Mensual Anual Personalitzat
  Maxima: Minima: Mijana:
Temperatura: 51.1 °F 21.9 °F 32.9 °F
Rosada: 36.3 °F 19.8 °F 26.2 °F
Humitat: 92 % 56 % 78 %
Velocitat del vent: 4.6 mph 0 mph 0.4 mph
Racha vent: 4.6 mph - -
Vent:- - SSW
Pressio: 30.8 in 30.7 in -
Pluja: 0 in    
Historical Graphs
 
 
Tabular Data for Diciembre 5, 2017
Time Temperature Dew Point Pressure Wind Wind Speed Wind Gust Humidity Rainfall Rate (Hourly) solar Conditions
00:03 27 °F 23.5 °F 30.7 in Calm     87 % 0 in 0.0 W/m2 CLR
00:08 27 °F 23.5 °F 30.7 in Calm     87 % 0 in 0.0 W/m2 CLR
00:13 27 °F 23.5 °F 30.7 in Calm     87 % 0 in 0.0 W/m2 CLR
00:18 27 °F 23.4 °F 30.7 in Calm     86 % 0 in 0.0 W/m2 CLR
00:23 27 °F 23.4 °F 30.7 in Calm     86 % 0 in 0.0 W/m2 CLR
00:28 27 °F 23.4 °F 30.7 in Calm     86 % 0 in 0.0 W/m2 CLR
00:33 27 °F 23.4 °F 30.7 in Calm     86 % 0 in 0.0 W/m2 CLR
00:38 27 °F 23.5 °F 30.7 in Calm     87 % 0 in 0.0 W/m2 CLR
00:43 27 °F 23.4 °F 30.7 in Calm     86 % 0 in 0.0 W/m2 CLR
00:48 28 °F 24.6 °F 30.7 in Calm     87 % 0 in 0.0 W/m2 CLR
00:53 28 °F 24.6 °F 30.7 in Calm     87 % 0 in 0.0 W/m2 CLR
01:03 27 °F 23.5 °F 30.7 in Calm     87 % 0 in 0.0 W/m2 CLR
01:08 27 °F 23.9 °F 30.7 in Calm     88 % 0 in 0.0 W/m2 CLR
01:14 27 °F 23.9 °F 30.7 in Calm     88 % 0 in 0.0 W/m2 CLR
01:19 27 °F 23.9 °F 30.7 in Calm     88 % 0 in 0.0 W/m2 CLR
01:24 27 °F 23.9 °F 30.7 in Calm     88 % 0 in 0.0 W/m2 CLR
01:29 27 °F 23.9 °F 30.7 in Calm     88 % 0 in 0.0 W/m2 CLR
01:34 27 °F 23.9 °F 30.7 in Calm     88 % 0 in 0.0 W/m2 CLR
01:39 27 °F 23.5 °F 30.7 in Calm     87 % 0 in 0.0 W/m2 CLR
01:44 27 °F 23.9 °F 30.7 in Calm     88 % 0 in 0.0 W/m2 CLR
01:54 27 °F 23.9 °F 30.7 in Calm     88 % 0 in 0.0 W/m2 CLR
01:59 27 °F 23.9 °F 30.7 in Calm     88 % 0 in 0.0 W/m2 CLR
02:04 27 °F 24.3 °F 30.7 in Calm     89 % 0 in 0.0 W/m2 CLR
02:09 27 °F 24.3 °F 30.7 in Calm     89 % 0 in 0.0 W/m2 CLR
02:14 27 °F 24.3 °F 30.7 in Calm     89 % 0 in 0.0 W/m2 CLR
02:19 27 °F 24.3 °F 30.7 in Calm     89 % 0 in 0.0 W/m2 CLR
02:24 26.1 °F 22.8 °F 30.7 in Calm     88 % 0 in 0.0 W/m2 CLR
02:29 26.1 °F 23.2 °F 30.7 in Calm     89 % 0 in 0.0 W/m2 CLR
02:34 27 °F 24.4 °F 30.7 in Calm     90 % 0 in 0.0 W/m2 CLR
02:39 27 °F 24.4 °F 30.7 in Calm     90 % 0 in 0.0 W/m2 CLR
02:44 26.1 °F 23.2 °F 30.7 in Calm     89 % 0 in 0.0 W/m2 CLR
02:50 26.1 °F 23.2 °F 30.7 in Calm     89 % 0 in 0.0 W/m2 CLR
02:55 26.1 °F 23.2 °F 30.7 in Calm     89 % 0 in 0.0 W/m2 CLR
03:00 26.1 °F 23.5 °F 30.7 in Calm     90 % 0 in 0.0 W/m2 CLR
03:05 26.1 °F 23.2 °F 30.7 in Calm     89 % 0 in 0.0 W/m2 CLR
03:10 26.1 °F 23.2 °F 30.7 in Calm     89 % 0 in 0.0 W/m2 CLR
03:15 26.1 °F 23.5 °F 30.7 in Calm     90 % 0 in 0.0 W/m2 CLR
03:20 26.1 °F 23.5 °F 30.7 in Calm     90 % 0 in 0.0 W/m2 CLR
03:25 26.1 °F 23.5 °F 30.7 in Calm     90 % 0 in 0.0 W/m2 CLR
03:30 26.1 °F 23.2 °F 30.7 in WSW 2.3 mph 2.3 mph 89 % 0 in 0.0 W/m2 CLR
03:35 26.1 °F 23.5 °F 30.7 in WSW 2.3 mph 2.3 mph 90 % 0 in 0.0 W/m2 CLR
03:40 26.1 °F 23.5 °F 30.7 in Calm     90 % 0 in 0.0 W/m2 CLR
03:45 26.1 °F 23.5 °F 30.7 in WSW 3.5 mph 3.5 mph 90 % 0 in 0.0 W/m2 CLR
03:50 26.1 °F 23.5 °F 30.7 in WSW 2.3 mph 2.3 mph 90 % 0 in 0.0 W/m2 CLR
04:00 26.1 °F 23.5 °F 30.7 in WSW 3.5 mph 3.5 mph 90 % 0 in 0.0 W/m2 CLR
04:05 26.1 °F 23.5 °F 30.7 in WSW 2.3 mph 2.3 mph 90 % 0 in 0.0 W/m2 CLR
04:10 26.1 °F 23.5 °F 30.7 in Calm     90 % 0 in 0.0 W/m2 CLR
04:15 26.1 °F 23.5 °F 30.7 in Calm     90 % 0 in 0.0 W/m2 CLR
04:20 26.1 °F 23.5 °F 30.7 in Calm     90 % 0 in 0.0 W/m2 CLR
04:25 26.1 °F 23.7 °F 30.7 in Calm     91 % 0 in 0.0 W/m2 CLR
04:30 25 °F 22.3 °F 30.7 in Calm     89 % 0 in 0.0 W/m2 CLR
04:35 26.1 °F 23.5 °F 30.7 in Calm     90 % 0 in 0.0 W/m2 CLR
04:40 25 °F 22.5 °F 30.7 in Calm     90 % 0 in 0.0 W/m2 CLR
04:45 25 °F 22.5 °F 30.7 in Calm     90 % 0 in 0.0 W/m2 CLR
04:50 25 °F 22.6 °F 30.7 in Calm     91 % 0 in 0.0 W/m2 CLR
04:55 25 °F 22.6 °F 30.7 in Calm     91 % 0 in 0.0 W/m2 CLR
05:00 25 °F 22.6 °F 30.7 in Calm     91 % 0 in 0.0 W/m2 CLR
05:05 25 °F 22.6 °F 30.7 in Calm     91 % 0 in 0.0 W/m2 CLR
05:10 25 °F 22.6 °F 30.7 in Calm     91 % 0 in 0.0 W/m2 CLR
05:15 24.1 °F 21.6 °F 30.7 in Calm     90 % 0 in 0.0 W/m2 CLR
05:20 24.1 °F 21.7 °F 30.7 in Calm     91 % 0 in 0.0 W/m2 CLR
05:25 24.1 °F 21.7 °F 30.7 in Calm     91 % 0 in 0.0 W/m2 CLR
05:30 24.1 °F 21.6 °F 30.7 in Calm     90 % 0 in 0.0 W/m2 CLR
05:35 24.1 °F 21.6 °F 30.7 in Calm     90 % 0 in 0.0 W/m2 CLR
05:40 24.1 °F 21.7 °F 30.7 in Calm     91 % 0 in 0.0 W/m2 CLR
05:45 24.1 °F 21.7 °F 30.7 in Calm     91 % 0 in 0.0 W/m2 CLR
05:50 24.1 °F 21.7 °F 30.7 in Calm     91 % 0 in 0.0 W/m2 CLR
05:55 23 °F 20.8 °F 30.7 in Calm     91 % 0 in 0.0 W/m2 CLR
06:00 23 °F 20.8 °F 30.7 in Calm     91 % 0 in 0.0 W/m2 CLR
06:10 23 °F 20.8 °F 30.7 in Calm     91 % 0 in 0.0 W/m2 CLR
06:15 23 °F 20.8 °F 30.7 in Calm     91 % 0 in 0.0 W/m2 CLR
06:20 23 °F 20.8 °F 30.7 in Calm     91 % 0 in 0.0 W/m2 CLR
06:25 23 °F 20.8 °F 30.7 in Calm     91 % 0 in 0.0 W/m2 CLR
06:30 23 °F 20.8 °F 30.7 in Calm     91 % 0 in 0.0 W/m2 CLR
06:35 23 °F 20.8 °F 30.7 in Calm     91 % 0 in 0.0 W/m2 CLR
06:40 23 °F 20.8 °F 30.7 in Calm     91 % 0 in 0.0 W/m2 CLR
06:45 23 °F 20.8 °F 30.7 in Calm     91 % 0 in 0.0 W/m2 CLR
06:50 23 °F 20.8 °F 30.7 in Calm     91 % 0 in 0.0 W/m2 CLR
06:55 23 °F 20.8 °F 30.7 in Calm     91 % 0 in 0.0 W/m2 CLR
07:00 24.1 °F 21.7 °F 30.7 in Calm     91 % 0 in 0.0 W/m2 CLR
07:05 24.1 °F 21.7 °F 30.7 in Calm     91 % 0 in 0.0 W/m2 CLR
07:10 23 °F 20.8 °F 30.7 in Calm     91 % 0 in 0.0 W/m2 CLR
07:15 23 °F 20.8 °F 30.7 in Calm     91 % 0 in 0.0 W/m2 CLR
07:20 23 °F 20.8 °F 30.7 in Calm     91 % 0 in 0.0 W/m2 CLR
07:25 23 °F 20.8 °F 30.7 in Calm     91 % 0 in 0.0 W/m2 CLR
07:30 23 °F 20.8 °F 30.7 in WSW 1.2 mph 1.2 mph 91 % 0 in 0.0 W/m2 CLR
07:35 23 °F 20.8 °F 30.7 in WSW 3 mph 3 mph 91 % 0 in 0.0 W/m2 CLR
07:40 23 °F 20.8 °F 30.7 in WSW 1.2 mph 1.2 mph 91 % 0 in 0.0 W/m2 CLR
07:45 23 °F 20.8 °F 30.7 in Calm     91 % 0 in 0.0 W/m2 CLR
07:50 23 °F 20.8 °F 30.7 in Calm     91 % 0 in 0.0 W/m2 CLR
07:55 23 °F 20.5 °F 30.7 in Calm     90 % 0 in 0.0 W/m2 CLR
08:00 21.9 °F 19.8 °F 30.7 in Calm     91 % 0 in 0.0 W/m2 OVC
08:01 21.9 °F 19.8 °F 30.7 in Calm     91 % 0 in 0.0 W/m2 OVC
08:06 23 °F 20.8 °F 30.7 in Calm     91 % 0 in 0.0 W/m2 OVC
08:11 23 °F 20.8 °F 30.7 in Calm     91 % 0 in 5.0 W/m2 OVC
08:16 23 °F 20.5 °F 30.7 in Calm     90 % 0 in 7.0 W/m2 BKN
08:21 24.1 °F 21.7 °F 30.7 in Calm     91 % 0 in 11.0 W/m2 BKN
08:26 24.1 °F 21.7 °F 30.7 in Calm     91 % 0 in 12.0 W/m2 BKN
08:31 24.1 °F 21.7 °F 30.7 in Calm     91 % 0 in 14.0 W/m2 BKN
08:36 23 °F 20.8 °F 30.7 in Calm     91 % 0 in 18.0 W/m2 BKN
08:41 23 °F 21 °F 30.7 in Calm     92 % 0 in 30.0 W/m2 BKN
08:46 23 °F 20.8 °F 30.7 in Calm     91 % 0 in 40.0 W/m2 BKN
08:51 23 °F 20.8 °F 30.7 in Calm     91 % 0 in 46.0 W/m2 SCT
08:56 24.1 °F 21.7 °F 30.7 in Calm     91 % 0 in 65.0 W/m2 SCT
09:01 24.1 °F 21.7 °F 30.7 in Calm     91 % 0 in 77.0 W/m2 FEW
09:06 24.1 °F 21.7 °F 30.7 in Calm     91 % 0 in 62.0 W/m2 SCT
09:11 24.1 °F 21.7 °F 30.7 in Calm     91 % 0 in 83.0 W/m2 FEW
09:16 25 °F 22.6 °F 30.7 in Calm     91 % 0 in 93.0 W/m2 FEW
09:21 25 °F 22.5 °F 30.7 in Calm     90 % 0 in 83.0 W/m2 CLR
09:22 25 °F 22.5 °F 30.7 in Calm     90 % 0 in 95.0 W/m2 CLR
09:27 26.1 °F 23.5 °F 30.7 in Calm     90 % 0 in 123.0 W/m2 CLR
09:32 26.1 °F 23.5 °F 30.7 in Calm     90 % 0 in 132.0 W/m2 CLR
09:37 26.1 °F 23.2 °F 30.7 in Calm     89 % 0 in 142.0 W/m2 CLR
09:42 27 °F 24.3 °F 30.7 in Calm     89 % 0 in 167.0 W/m2 CLR
09:47 27 °F 24.3 °F 30.7 in Calm     89 % 0 in 178.0 W/m2 CLR
09:52 28 °F 25 °F 30.7 in Calm     88 % 0 in 109.0 W/m2 CLR
09:57 28.9 °F 25.9 °F 30.7 in Calm     88 % 0 in 204.0 W/m2 CLR
10:02 28.9 °F 25.5 °F 30.7 in Calm     87 % 0 in 105.0 W/m2 CLR
10:07 28.9 °F 25.2 °F 30.7 in Calm     85 % 0 in 234.0 W/m2 CLR
10:12 30 °F 25.9 °F 30.7 in Calm     84 % 0 in 248.0 W/m2 CLR
10:17 30.9 °F 26.4 °F 30.7 in Calm     83 % 0 in 262.0 W/m2 CLR
10:22 30.9 °F 26.1 °F 30.7 in Calm     82 % 0 in 278.0 W/m2 CLR
10:27 32 °F 27.1 °F 30.7 in Calm     82 % 0 in 287.0 W/m2 CLR
10:32 33.1 °F 28 °F 30.7 in Calm     82 % 0 in 297.0 W/m2 CLR
10:37 34 °F 28.6 °F 30.7 in Calm     80 % 0 in 308.0 W/m2 CLR
10:42 34 °F 27.9 °F 30.7 in Calm     78 % 0 in 316.0 W/m2 CLR
10:47 35.1 °F 28.6 °F 30.7 in Calm     77 % 0 in 325.0 W/m2 CLR
10:52 36 °F 29.1 °F 30.8 in Calm     76 % 0 in 334.0 W/m2 CLR
10:57 37 °F 29.8 °F 30.8 in Calm     75 % 0 in 341.0 W/m2 CLR
11:02 39 °F 31.5 °F 30.8 in Calm     74 % 0 in 348.0 W/m2 CLR
11:07 39 °F 31.1 °F 30.8 in Calm     73 % 0 in 357.0 W/m2 CLR
11:12 39.9 °F 31.6 °F 30.8 in Calm     72 % 0 in 364.0 W/m2 CLR
11:17 39.9 °F 31.5 °F 30.8 in Calm     71 % 0 in 371.0 W/m2 CLR
11:22 42.1 °F 32.5 °F 30.8 in NW 2 mph 2 mph 69 % 0 in 380.0 W/m2 CLR
11:27 42.1 °F 31.5 °F 30.7 in NNW 3.5 mph 3.5 mph 66 % 0 in 385.0 W/m2 CLR
11:32 43 °F 32.7 °F 30.7 in NNW 4.6 mph 4.6 mph 67 % 0 in 394.0 W/m2 CLR
11:37 44.1 °F 33.4 °F 30.7 in Calm     66 % 0 in 397.0 W/m2 CLR
11:42 45 °F 34.3 °F 30.7 in North 3.5 mph 3.5 mph 66 % 0 in 403.0 W/m2 CLR
11:47 45 °F 34 °F 30.7 in Calm     65 % 0 in 408.0 W/m2 CLR
11:52 46 °F 34.5 °F 30.7 in NNW 3.5 mph 3.5 mph 64 % 0 in 413.0 W/m2 CLR
11:57 46 °F 34.9 °F 30.7 in NW 3.5 mph 3.5 mph 65 % 0 in 417.0 W/m2 CLR
12:02 46 °F 34.5 °F 30.7 in North 1.2 mph   64 % 0 in 422.0 W/m2 CLR
12:07 46 °F 34.2 °F 30.7 in NNW 3.5 mph 3.5 mph 63 % 0 in 425.0 W/m2 CLR
12:12 46 °F 34.2 °F 30.7 in NNW 3.5 mph 3.5 mph 63 % 0 in 429.0 W/m2 CLR
12:18 46.9 °F 35.1 °F 30.7 in NNW 3 mph 3 mph 63 % 0 in 431.0 W/m2 CLR
12:23 46.9 °F 35.1 °F 30.7 in NW 3.5 mph 3.5 mph 63 % 0 in 434.0 W/m2 CLR
12:28 46.9 °F 35.1 °F 30.7 in NW 3.5 mph 3.5 mph 63 % 0 in 436.0 W/m2 CLR
12:33 46.9 °F 34.5 °F 30.7 in North 3.5 mph 3.5 mph 62 % 0 in 436.0 W/m2 CLR
12:38 46.9 °F 34.5 °F 30.7 in NW 3.5 mph 3.5 mph 62 % 0 in 439.0 W/m2 CLR
12:43 48 °F 35.6 °F 30.7 in NW 3.5 mph   62 % 0 in 439.0 W/m2 CLR
12:48 48 °F 35.6 °F 30.7 in Calm     62 % 0 in 439.0 W/m2 CLR
12:53 48 °F 35.2 °F 30.7 in Calm     61 % 0 in 439.0 W/m2 CLR
12:58 48 °F 34.9 °F 30.7 in Calm     60 % 0 in 439.0 W/m2 CLR
13:03 48 °F 35.2 °F 30.7 in NW 3.5 mph 3.5 mph 61 % 0 in 438.0 W/m2 CLR
13:04 46.9 °F 33.8 °F 30.7 in NW 2.3 mph 2.3 mph 60 % 0 in 438.0 W/m2 CLR
13:09 48 °F 34.9 °F 30.7 in Calm     60 % 0 in 438.0 W/m2 CLR
13:14 48 °F 34.9 °F 30.7 in NNE 1.2 mph   60 % 0 in 438.0 W/m2 CLR
13:19 48.9 °F 35.8 °F 30.7 in Calm     60 % 0 in 434.0 W/m2 CLR
13:24 48 °F 34.3 °F 30.7 in North 1.2 mph   59 % 0 in 432.0 W/m2 CLR
13:29 48.9 °F 35.2 °F 30.7 in Calm     59 % 0 in 431.0 W/m2 CLR
13:34 48.9 °F 34.9 °F 30.7 in Calm     58 % 0 in 427.0 W/m2 CLR
13:39 48 °F 34 °F 30.7 in Calm   0.1 mph 58 % 0 in 424.0 W/m2 CLR
13:44 48 °F 33.4 °F 30.7 in Calm     57 % 0 in 422.0 W/m2 CLR
13:49 48.9 °F 34.3 °F 30.7 in Calm     57 % 0 in 415.0 W/m2 CLR
13:54 48.9 °F 34 °F 30.7 in Calm     56 % 0 in 411.0 W/m2 CLR
13:59 48.9 °F 34.3 °F 30.7 in Calm     57 % 0 in 406.0 W/m2 CLR
14:04 48.9 °F 34.3 °F 30.7 in Calm     57 % 0 in 401.0 W/m2 CLR
14:09 50 °F 35.4 °F 30.7 in ENE 1.2 mph 1.2 mph 57 % 0 in 396.0 W/m2 CLR
14:14 50 °F 35.4 °F 30.7 in Calm     57 % 0 in 388.0 W/m2 CLR
14:19 50 °F 35.4 °F 30.7 in Calm     57 % 0 in 383.0 W/m2 CLR
14:24 50 °F 35.4 °F 30.7 in Calm     57 % 0 in 376.0 W/m2 CLR
14:29 50 °F 35.4 °F 30.7 in East 3.5 mph 3.5 mph 57 % 0 in 366.0 W/m2 CLR
14:34 50 °F 34.9 °F 30.7 in Calm     56 % 0 in 362.0 W/m2 CLR
14:39 51.1 °F 36.3 °F 30.7 in SE 3.5 mph 3.5 mph 57 % 0 in 353.0 W/m2 CLR
14:44 50 °F 35.4 °F 30.7 in SE 2.3 mph 2.3 mph 57 % 0 in 346.0 W/m2 CLR
14:49 50 °F 34.9 °F 30.7 in ENE 1.2 mph   56 % 0 in 334.0 W/m2 CLR
14:54 51.1 °F 36.3 °F 30.7 in Calm     57 % 0 in 329.0 W/m2 CLR
14:59 51.1 °F 35.8 °F 30.7 in Calm     56 % 0 in 320.0 W/m2 CLR
15:04 51.1 °F 35.8 °F 30.7 in Calm     56 % 0 in 311.0 W/m2 CLR
15:09 50 °F 34.9 °F 30.7 in ENE 1 mph 1.1 mph 56 % 0 in 302.0 W/m2 CLR
15:14 50 °F 34.9 °F 30.7 in ESE 2.3 mph 2.3 mph 56 % 0 in 292.0 W/m2 CLR
15:19 50 °F 34.9 °F 30.7 in East 1.2 mph   56 % 0 in 279.0 W/m2 CLR
15:24 50 °F 34.9 °F 30.7 in East 1.2 mph 1.2 mph 56 % 0 in 265.0 W/m2 CLR
15:29 50 °F 34.9 °F 30.7 in East 3.5 mph 3.5 mph 56 % 0 in 251.0 W/m2 CLR
15:34 50 °F 34.9 °F 30.7 in ESE 2.3 mph 2.3 mph 56 % 0 in 241.0 W/m2 CLR
15:39 50 °F 34.9 °F 30.7 in ENE 3.5 mph 3.5 mph 56 % 0 in 229.0 W/m2 CLR
15:45 50 °F 35.4 °F 30.7 in East 1.2 mph 1.2 mph 57 % 0 in 218.0 W/m2 CLR
15:50 50 °F 35.4 °F 30.7 in East 2.3 mph   57 % 0 in 204.0 W/m2 CLR
15:55 48.9 °F 34 °F 30.7 in Calm     56 % 0 in 192.0 W/m2 CLR
16:00 48.9 °F 34 °F 30.7 in ENE 3.5 mph 3.5 mph 56 % 0 in 178.0 W/m2 CLR
16:05 48.9 °F 34 °F 30.7 in Calm     56 % 0 in 162.0 W/m2 CLR
16:15 48 °F 33.1 °F 30.7 in NE 1.2 mph 1.2 mph 56 % 0 in 135.0 W/m2 CLR
16:20 48 °F 33.1 °F 30.7 in Calm     56 % 0 in 123.0 W/m2 CLR
16:25 48 °F 33.4 °F 30.7 in ENE 2.3 mph   57 % 0 in 107.0 W/m2 CLR
16:30 48 °F 33.4 °F 30.7 in Calm     57 % 0 in 95.0 W/m2 CLR
16:35 46.9 °F 32.5 °F 30.7 in Calm     57 % 0 in 83.0 W/m2 CLR
16:40 46.9 °F 32.5 °F 30.7 in Calm     57 % 0 in 63.0 W/m2 FEW
16:45 46 °F 31.6 °F 30.7 in Calm     57 % 0 in 54.0 W/m2 SCT
16:50 46 °F 31.6 °F 30.7 in Calm     57 % 0 in 47.0 W/m2 SCT
16:55 45 °F 31.1 °F 30.7 in Calm     58 % 0 in 37.0 W/m2 BKN
16:56 45 °F 31.1 °F 30.7 in Calm     58 % 0 in 35.0 W/m2 BKN
17:01 44.1 °F 30.2 °F 30.7 in Calm     58 % 0 in 25.0 W/m2 BKN
17:06 43 °F 29.7 °F 30.7 in Calm     59 % 0 in 16.0 W/m2 BKN
17:11 42.1 °F 28.8 °F 30.7 in Calm     59 % 0 in 14.0 W/m2 BKN
17:16 41 °F 28.2 °F 30.7 in Calm     60 % 0 in 12.0 W/m2 BKN
17:21 41 °F 28.6 °F 30.7 in Calm     61 % 0 in 11.0 W/m2 BKN
17:26 39.9 °F 27.7 °F 30.7 in Calm     61 % 0 in 7.0 W/m2 BKN
17:31 39 °F 27.1 °F 30.7 in Calm     62 % 0 in 5.0 W/m2 OVC
17:36 39 °F 27.1 °F 30.7 in Calm     62 % 0 in 0.0 W/m2 OVC
17:41 37.9 °F 26.1 °F 30.7 in Calm     62 % 0 in 0.0 W/m2 CLR
17:46 37 °F 25.5 °F 30.7 in Calm     63 % 0 in 0.0 W/m2 CLR
17:51 37 °F 25.9 °F 30.7 in Calm     64 % 0 in 0.0 W/m2 CLR
17:52 37 °F 25.9 °F 30.7 in Calm     64 % 0 in 0.0 W/m2 CLR
17:57 37 °F 26.2 °F 30.7 in Calm     65 % 0 in 0.0 W/m2 CLR
18:02 37 °F 26.2 °F 30.7 in Calm     65 % 0 in 0.0 W/m2 CLR
18:07 37.9 °F 27.7 °F 30.7 in Calm     66 % 0 in 0.0 W/m2 CLR
18:12 37 °F 27.1 °F 30.7 in Calm     67 % 0 in 0.0 W/m2 CLR
18:17 37.9 °F 28 °F 30.7 in Calm     67 % 0 in 0.0 W/m2 CLR
18:22 37.9 °F 28.4 °F 30.7 in Calm     68 % 0 in 0.0 W/m2 CLR
18:28 37.9 °F 28 °F 30.7 in Calm     67 % 0 in 0.0 W/m2 CLR
18:33 37 °F 27.9 °F 30.7 in Calm     69 % 0 in 0.0 W/m2 CLR
18:37 36 °F 26.8 °F 30.7 in Calm     69 % 0 in 0.0 W/m2 CLR
18:43 36 °F 27.1 °F 30.7 in Calm     70 % 0 in 0.0 W/m2 CLR
18:48 35.1 °F 27 °F 30.7 in Calm     72 % 0 in 0.0 W/m2 CLR
18:53 35.1 °F 26.4 °F 30.7 in Calm     71 % 0 in 0.0 W/m2 CLR
18:58 34 °F 26.2 °F 30.7 in Calm     73 % 0 in 0.0 W/m2 CLR
19:03 34 °F 26.6 °F 30.7 in Calm     74 % 0 in 0.0 W/m2 CLR
19:08 33.1 °F 25.5 °F 30.7 in Calm     74 % 0 in 0.0 W/m2 CLR
19:13 33.1 °F 25.5 °F 30.7 in Calm     74 % 0 in 0.0 W/m2 CLR
19:18 32 °F 25 °F 30.7 in Calm     75 % 0 in 0.0 W/m2 CLR
19:23 30.9 °F 24.1 °F 30.7 in Calm     75 % 0 in 0.0 W/m2 CLR
19:28 30.9 °F 24.3 °F 30.7 in Calm     76 % 0 in 0.0 W/m2 CLR
19:33 30 °F 23.4 °F 30.7 in Calm     76 % 0 in 0.0 W/m2 CLR
19:38 30 °F 23.7 °F 30.7 in Calm     77 % 0 in 0.0 W/m2 CLR
19:43 30 °F 23.7 °F 30.7 in Calm     77 % 0 in 0.0 W/m2 CLR
19:48 30.9 °F 24.6 °F 30.7 in Calm     77 % 0 in 0.0 W/m2 CLR
19:53 30 °F 23.7 °F 30.7 in Calm     77 % 0 in 0.0 W/m2 CLR
19:58 30 °F 24.1 °F 30.7 in Calm     78 % 0 in 0.0 W/m2 CLR
20:03 30.9 °F 25 °F 30.7 in Calm     78 % 0 in 0.0 W/m2 CLR
20:08 30.9 °F 25.2 °F 30.7 in Calm     79 % 0 in 0.0 W/m2 CLR
20:13 30 °F 24.3 °F 30.7 in Calm     79 % 0 in 0.0 W/m2 CLR
20:18 30 °F 24.3 °F 30.7 in Calm     79 % 0 in 0.0 W/m2 CLR
20:23 30 °F 24.6 °F 30.7 in Calm     80 % 0 in 0.0 W/m2 CLR
20:28 28.9 °F 23.5 °F 30.7 in Calm     80 % 0 in 0.0 W/m2 CLR
20:33 28.9 °F 23.5 °F 30.7 in Calm     80 % 0 in 0.0 W/m2 CLR
20:38 28.9 °F 23.5 °F 30.7 in Calm     80 % 0 in 0.0 W/m2 CLR
20:43 28.9 °F 23.5 °F 30.7 in Calm     80 % 0 in 0.0 W/m2 CLR
20:48 28.9 °F 23.9 °F 30.7 in Calm     81 % 0 in 0.0 W/m2 CLR
20:53 28.9 °F 23.9 °F 30.7 in Calm     81 % 0 in 0.0 W/m2 CLR
20:58 28.9 °F 23.9 °F 30.7 in Calm     81 % 0 in 0.0 W/m2 CLR
21:03 28 °F 23.2 °F 30.7 in Calm     82 % 0 in 0.0 W/m2 CLR
21:08 28 °F 23.2 °F 30.7 in Calm     82 % 0 in 0.0 W/m2 CLR
21:13 28 °F 23.2 °F 30.7 in Calm     82 % 0 in 0.0 W/m2 CLR
21:18 27 °F 22.3 °F 30.7 in Calm     82 % 0 in 0.0 W/m2 CLR
21:23 27 °F 22.3 °F 30.7 in Calm     82 % 0 in 0.0 W/m2 CLR
21:28 27 °F 22.5 °F 30.7 in Calm     83 % 0 in 0.0 W/m2 CLR
21:33 27 °F 22.5 °F 30.7 in Calm     83 % 0 in 0.0 W/m2 CLR
21:38 27 °F 22.5 °F 30.7 in Calm     83 % 0 in 0.0 W/m2 CLR
21:43 26.1 °F 21.6 °F 30.7 in Calm     83 % 0 in 0.0 W/m2 CLR
21:48 26.1 °F 21.6 °F 30.7 in Calm     83 % 0 in 0.0 W/m2 CLR
21:53 26.1 °F 21.6 °F 30.7 in Calm     83 % 0 in 0.0 W/m2 CLR
21:59 26.1 °F 21.7 °F 30.7 in Calm     84 % 0 in 0.0 W/m2 CLR
22:04 26.1 °F 21.7 °F 30.7 in Calm     84 % 0 in 0.0 W/m2 CLR
22:09 26.1 °F 21.7 °F 30.7 in Calm     84 % 0 in 0.0 W/m2 CLR
22:14 26.1 °F 21.7 °F 30.7 in Calm     84 % 0 in 0.0 W/m2 CLR
22:19 26.1 °F 22.1 °F 30.7 in Calm     85 % 0 in 0.0 W/m2 CLR
22:24 26.1 °F 22.1 °F 30.7 in Calm     85 % 0 in 0.0 W/m2 CLR
22:29 26.1 °F 21.7 °F 30.7 in Calm     84 % 0 in 0.0 W/m2 CLR
22:34 26.1 °F 22.1 °F 30.7 in Calm     85 % 0 in 0.0 W/m2 CLR
22:39 25 °F 21 °F 30.7 in Calm     85 % 0 in 0.0 W/m2 CLR
22:44 25 °F 21 °F 30.7 in Calm     85 % 0 in 0.0 W/m2 CLR
22:49 26.1 °F 22.1 °F 30.7 in Calm     85 % 0 in 0.0 W/m2 CLR
22:54 26.1 °F 22.1 °F 30.7 in Calm     85 % 0 in 0.0 W/m2 CLR
23:04 26.1 °F 22.5 °F 30.7 in Calm     86 % 0 in 0.0 W/m2 CLR
23:09 26.1 °F 22.5 °F 30.7 in Calm     86 % 0 in 0.0 W/m2 CLR
23:14 26.1 °F 22.6 °F 30.7 in Calm     87 % 0 in 0.0 W/m2 CLR
23:19 26.1 °F 22.5 °F 30.7 in Calm     86 % 0 in 0.0 W/m2 CLR
23:24 26.1 °F 22.5 °F 30.7 in Calm     86 % 0 in 0.0 W/m2 CLR
23:29 26.1 °F 22.5 °F 30.7 in Calm     86 % 0 in 0.0 W/m2 CLR
23:34 26.1 °F 22.5 °F 30.7 in Calm     86 % 0 in 0.0 W/m2 CLR
23:39 26.1 °F 22.5 °F 30.7 in Calm     86 % 0 in 0.0 W/m2 CLR
23:44 26.1 °F 22.6 °F 30.7 in Calm     87 % 0 in 0.0 W/m2 CLR
23:49 26.1 °F 22.6 °F 30.7 in Calm     87 % 0 in 0.0 W/m2 CLR
23:54 26.1 °F 22.6 °F 30.7 in Calm     87 % 0 in 0.0 W/m2 CLR
23:59 26.1 °F 22.6 °F 30.7 in Calm     87 % 0 in 0.0 W/m2 CLR
Lo Temps de Massalio
Compliments of Weather Underground - 1.25 mb